createdAt,value
2022-09-13T00:00:26.836Z,0
2022-09-13T00:01:26.871Z,0
2022-09-13T00:02:26.883Z,0
2022-09-13T00:03:26.844Z,0
2022-09-13T00:04:26.831Z,0
2022-09-13T00:05:26.846Z,0
2022-09-13T00:06:26.869Z,0
2022-09-13T00:07:26.832Z,0
2022-09-13T00:08:26.842Z,0
2022-09-13T00:09:26.839Z,0
2022-09-13T00:10:26.871Z,0
2022-09-13T00:11:26.854Z,0
2022-09-13T00:12:26.843Z,0
2022-09-13T00:13:26.842Z,0
2022-09-13T00:14:26.845Z,0
2022-09-13T00:15:26.849Z,0
2022-09-13T00:16:26.888Z,0
2022-09-13T00:17:26.847Z,0
2022-09-13T00:18:26.847Z,0
2022-09-13T00:19:26.845Z,0
2022-09-13T00:20:26.841Z,0
2022-09-13T00:21:26.847Z,0
2022-09-13T00:22:26.870Z,0
2022-09-13T00:23:26.857Z,0
2022-09-13T00:24:26.846Z,0
2022-09-13T00:25:26.852Z,0
2022-09-13T00:26:26.856Z,0
2022-09-13T00:27:26.854Z,0
2022-09-13T00:28:26.853Z,0
2022-09-13T00:29:26.852Z,0
2022-09-13T00:30:26.845Z,0
2022-09-13T00:31:26.887Z,0
2022-09-13T00:32:26.854Z,0
2022-09-13T00:33:26.852Z,0
2022-09-13T00:34:26.858Z,0
2022-09-13T00:35:26.856Z,0
2022-09-13T00:36:26.868Z,0
2022-09-13T00:37:26.862Z,0
2022-09-13T00:38:26.888Z,0
2022-09-13T00:39:26.856Z,0
2022-09-13T00:40:26.905Z,0
2022-09-13T00:41:26.859Z,0
2022-09-13T00:42:26.861Z,0
2022-09-13T00:43:26.859Z,0
2022-09-13T00:44:26.865Z,0
2022-09-13T00:45:26.911Z,0
2022-09-13T00:46:26.870Z,0
2022-09-13T00:47:26.878Z,0
2022-09-13T00:48:26.866Z,0
2022-09-13T00:49:26.874Z,0
2022-09-13T00:50:26.871Z,0
2022-09-13T00:51:26.877Z,0
2022-09-13T00:52:26.875Z,0
2022-09-13T00:53:26.868Z,0
2022-09-13T00:54:26.893Z,0
2022-09-13T00:55:26.875Z,0
2022-09-13T00:56:26.873Z,0
2022-09-13T00:57:26.870Z,0
2022-09-13T00:58:26.874Z,0
2022-09-13T00:59:26.881Z,0
2022-09-13T01:00:26.875Z,0
2022-09-13T01:01:26.935Z,0
2022-09-13T01:02:26.950Z,0
2022-09-13T01:03:26.871Z,0
2022-09-13T01:04:26.872Z,0
2022-09-13T01:05:26.882Z,0
2022-09-13T01:06:26.881Z,0
2022-09-13T01:07:26.879Z,0
2022-09-13T01:08:26.881Z,0
2022-09-13T01:09:26.882Z,0
2022-09-13T01:10:26.898Z,0
2022-09-13T01:11:26.885Z,0
2022-09-13T01:12:26.884Z,0
2022-09-13T01:13:26.890Z,0
2022-09-13T01:14:26.881Z,0
2022-09-13T01:15:26.877Z,0
2022-09-13T01:16:26.909Z,0
2022-09-13T01:17:26.890Z,0
2022-09-13T01:18:26.895Z,0
2022-09-13T01:19:26.885Z,0
2022-09-13T01:20:26.890Z,0
2022-09-13T01:21:26.892Z,0
2022-09-13T01:22:26.892Z,0
2022-09-13T01:23:26.899Z,0
2022-09-13T01:24:26.896Z,0
2022-09-13T01:25:26.899Z,0
2022-09-13T01:26:26.912Z,0
2022-09-13T01:27:26.908Z,0
2022-09-13T01:28:26.890Z,0
2022-09-13T01:29:26.896Z,0
2022-09-13T01:30:26.899Z,0
2022-09-13T01:31:26.935Z,0
2022-09-13T01:32:26.895Z,0
2022-09-13T01:33:26.900Z,0
2022-09-13T01:34:26.898Z,0
2022-09-13T01:35:26.900Z,0
2022-09-13T01:36:26.900Z,0
2022-09-13T01:37:26.898Z,0
2022-09-13T01:38:26.900Z,0
2022-09-13T01:39:26.898Z,0
2022-09-13T01:40:26.896Z,0
2022-09-13T01:41:26.897Z,0
2022-09-13T01:42:26.925Z,0
2022-09-13T01:43:26.897Z,0
2022-09-13T01:44:26.901Z,0
2022-09-13T01:45:26.978Z,0
2022-09-13T01:46:26.907Z,0
2022-09-13T01:47:26.901Z,0
2022-09-13T01:48:26.903Z,0
2022-09-13T01:49:26.910Z,0
2022-09-13T01:50:26.906Z,0
2022-09-13T01:51:26.897Z,0
2022-09-13T01:52:26.903Z,0
2022-09-13T01:53:26.905Z,0
2022-09-13T01:54:26.903Z,0
2022-09-13T01:55:26.903Z,0
2022-09-13T01:56:26.911Z,0
2022-09-13T01:57:26.901Z,0
2022-09-13T01:58:27.013Z,0
2022-09-13T01:59:26.914Z,0
2022-09-13T02:00:26.898Z,0
2022-09-13T02:01:26.959Z,0
2022-09-13T02:02:26.978Z,0
2022-09-13T02:03:26.909Z,0
2022-09-13T02:04:26.906Z,0
2022-09-13T02:05:26.906Z,0
2022-09-13T02:06:26.910Z,0
2022-09-13T02:07:26.906Z,0
2022-09-13T02:08:26.909Z,0
2022-09-13T02:09:26.905Z,0
2022-09-13T02:10:26.909Z,0
2022-09-13T02:11:26.910Z,0
2022-09-13T02:12:26.908Z,0
2022-09-13T02:13:26.914Z,0
2022-09-13T02:14:26.933Z,0
2022-09-13T02:15:26.901Z,0
2022-09-13T02:16:26.946Z,0
2022-09-13T02:17:26.916Z,0
2022-09-13T02:18:26.912Z,0
2022-09-13T02:19:26.913Z,0
2022-09-13T02:20:26.919Z,0
2022-09-13T02:21:26.913Z,0
2022-09-13T02:22:26.912Z,0
2022-09-13T02:23:26.915Z,0
2022-09-13T02:24:26.908Z,0
2022-09-13T02:25:26.906Z,0
2022-09-13T02:26:26.902Z,0
2022-09-13T02:27:26.910Z,0
2022-09-13T02:28:26.913Z,0
2022-09-13T02:29:26.919Z,0
2022-09-13T02:30:26.995Z,0
2022-09-13T02:31:26.959Z,0
2022-09-13T02:32:26.914Z,0
2022-09-13T02:33:26.913Z,0
2022-09-13T02:34:26.918Z,0
2022-09-13T02:35:26.914Z,0
2022-09-13T02:36:26.911Z,0
2022-09-13T02:37:26.919Z,0
2022-09-13T02:38:26.905Z,0
2022-09-13T02:39:26.905Z,0
2022-09-13T02:40:26.918Z,0
2022-09-13T02:41:26.916Z,0
2022-09-13T02:42:26.912Z,0
2022-09-13T02:43:26.914Z,0
2022-09-13T02:44:26.920Z,0
2022-09-13T02:45:26.963Z,0
2022-09-13T02:46:26.941Z,0
2022-09-13T02:47:26.921Z,0
2022-09-13T02:48:26.914Z,0
2022-09-13T02:49:26.925Z,0
2022-09-13T02:50:26.929Z,0
2022-09-13T02:51:26.921Z,0
2022-09-13T02:52:26.915Z,0
2022-09-13T02:53:26.923Z,0
2022-09-13T02:54:26.917Z,0
2022-09-13T02:55:26.920Z,0
2022-09-13T02:56:26.919Z,0
2022-09-13T02:57:26.919Z,0
2022-09-13T02:58:27.332Z,0
2022-09-13T02:59:26.922Z,0
2022-09-13T03:00:26.922Z,0
2022-09-13T03:01:27.000Z,0
2022-09-13T03:02:27.024Z,0
2022-09-13T03:03:26.919Z,0
2022-09-13T03:04:26.919Z,0
2022-09-13T03:05:26.925Z,0
2022-09-13T03:06:26.924Z,0
2022-09-13T03:07:26.918Z,0
2022-09-13T03:08:26.912Z,0
2022-09-13T03:09:26.918Z,0
2022-09-13T03:10:26.921Z,0
2022-09-13T03:11:26.914Z,0
2022-09-13T03:12:26.919Z,0
2022-09-13T03:13:26.932Z,0
2022-09-13T03:14:26.923Z,0
2022-09-13T03:15:26.925Z,0
2022-09-13T03:16:26.946Z,0
2022-09-13T03:17:26.923Z,0
2022-09-13T03:18:26.943Z,0
2022-09-13T03:19:26.931Z,0
2022-09-13T03:20:26.924Z,0
2022-09-13T03:21:26.921Z,0
2022-09-13T03:22:26.916Z,0
2022-09-13T03:23:26.920Z,0
2022-09-13T03:24:26.926Z,0
2022-09-13T03:25:26.926Z,0
2022-09-13T03:26:26.926Z,0
2022-09-13T03:27:26.923Z,0
2022-09-13T03:28:26.919Z,0
2022-09-13T03:29:26.929Z,0
2022-09-13T03:30:26.927Z,0
2022-09-13T03:31:26.987Z,0
2022-09-13T03:32:26.921Z,0
2022-09-13T03:33:26.918Z,0
2022-09-13T03:34:27.238Z,0
2022-09-13T03:35:26.934Z,0
2022-09-13T03:36:26.934Z,0
2022-09-13T03:37:26.937Z,0
2022-09-13T03:38:26.924Z,0
2022-09-13T03:39:26.929Z,0
2022-09-13T03:40:26.937Z,0
2022-09-13T03:41:26.932Z,0
2022-09-13T03:42:26.928Z,0
2022-09-13T03:43:26.931Z,0
2022-09-13T03:44:26.925Z,0
2022-09-13T03:45:26.964Z,0
2022-09-13T03:46:26.927Z,0
2022-09-13T03:47:26.938Z,0
2022-09-13T03:48:26.929Z,0
2022-09-13T03:49:26.929Z,0
2022-09-13T03:50:26.960Z,0
2022-09-13T03:51:26.936Z,0
2022-09-13T03:52:26.939Z,0
2022-09-13T03:53:26.949Z,0
2022-09-13T03:54:26.942Z,0
2022-09-13T03:55:26.946Z,0
2022-09-13T03:56:26.947Z,0
2022-09-13T03:57:26.949Z,0
2022-09-13T03:58:26.942Z,0
2022-09-13T03:59:26.946Z,0
2022-09-13T04:00:26.935Z,0
2022-09-13T04:01:27.008Z,0
2022-09-13T04:02:26.998Z,0
2022-09-13T04:03:26.949Z,0
2022-09-13T04:04:26.950Z,0
2022-09-13T04:05:26.957Z,0
2022-09-13T04:06:26.980Z,0
2022-09-13T04:07:26.958Z,0
2022-09-13T04:08:26.955Z,0
2022-09-13T04:09:26.955Z,0
2022-09-13T04:10:26.950Z,0
2022-09-13T04:11:26.962Z,0
2022-09-13T04:12:26.959Z,0
2022-09-13T04:13:26.969Z,0
2022-09-13T04:14:26.972Z,0
2022-09-13T04:15:26.957Z,0
2022-09-13T04:16:27.009Z,0
2022-09-13T04:17:26.960Z,0
2022-09-13T04:18:26.958Z,0
2022-09-13T04:19:26.961Z,0
2022-09-13T04:20:26.963Z,0
2022-09-13T04:21:26.961Z,0
2022-09-13T04:22:27.044Z,0
2022-09-13T04:23:26.972Z,0
2022-09-13T04:24:26.970Z,0
2022-09-13T04:25:26.963Z,0
2022-09-13T04:26:26.963Z,0
2022-09-13T04:27:26.977Z,0
2022-09-13T04:28:26.974Z,0
2022-09-13T04:29:26.974Z,0
2022-09-13T04:30:26.980Z,0
2022-09-13T04:31:27.049Z,0
2022-09-13T04:32:26.981Z,0
2022-09-13T04:33:26.992Z,0
2022-09-13T04:34:26.986Z,0
2022-09-13T04:35:26.985Z,0
2022-09-13T04:36:26.995Z,0
2022-09-13T04:37:26.990Z,0
2022-09-13T04:38:27.043Z,0
2022-09-13T04:39:26.997Z,0
2022-09-13T04:40:26.999Z,0
2022-09-13T04:41:27.004Z,0
2022-09-13T04:42:26.998Z,0
2022-09-13T04:43:27.008Z,0
2022-09-13T04:44:27.007Z,0
2022-09-13T04:45:27.006Z,0
2022-09-13T04:46:27.013Z,0
2022-09-13T04:47:27.005Z,0
2022-09-13T04:48:27.011Z,0
2022-09-13T04:49:27.013Z,0
2022-09-13T04:50:27.006Z,0
2022-09-13T04:51:27.011Z,0
2022-09-13T04:52:27.024Z,0
2022-09-13T04:53:27.019Z,0
2022-09-13T04:54:27.120Z,0
2022-09-13T04:55:27.025Z,0
2022-09-13T04:56:27.017Z,0
2022-09-13T04:57:27.020Z,0
2022-09-13T04:58:27.033Z,0
2022-09-13T04:59:27.029Z,0
2022-09-13T05:00:27.026Z,0
2022-09-13T05:01:27.988Z,0
2022-09-13T05:02:27.054Z,0
2022-09-13T05:03:27.029Z,0
2022-09-13T05:04:27.026Z,0
2022-09-13T05:05:27.038Z,0
2022-09-13T05:06:27.043Z,0
2022-09-13T05:07:27.042Z,0
2022-09-13T05:08:27.043Z,0
2022-09-13T05:09:27.046Z,0
2022-09-13T05:10:27.074Z,0
2022-09-13T05:11:27.053Z,0
2022-09-13T05:12:27.042Z,0
2022-09-13T05:13:27.050Z,0
2022-09-13T05:14:27.049Z,0
2022-09-13T05:15:27.059Z,0
2022-09-13T05:16:27.161Z,0
2022-09-13T05:17:27.064Z,0
2022-09-13T05:18:27.063Z,0
2022-09-13T05:19:27.068Z,0
2022-09-13T05:20:27.073Z,0
2022-09-13T05:21:27.074Z,0
2022-09-13T05:22:27.070Z,0
2022-09-13T05:23:27.076Z,0
2022-09-13T05:24:27.074Z,0
2022-09-13T05:25:27.080Z,0
2022-09-13T05:26:27.186Z,0
2022-09-13T05:27:27.073Z,0
2022-09-13T05:28:27.078Z,0
2022-09-13T05:29:27.083Z,0
2022-09-13T05:30:27.085Z,0
2022-09-13T05:31:27.154Z,0
2022-09-13T05:32:27.094Z,0
2022-09-13T05:33:27.091Z,0
2022-09-13T05:34:27.089Z,0
2022-09-13T05:35:27.086Z,0
2022-09-13T05:36:27.094Z,0
2022-09-13T05:37:27.103Z,0
2022-09-13T05:38:27.096Z,0
2022-09-13T05:39:33.752Z,0
2022-09-13T05:40:27.162Z,0
2022-09-13T05:41:27.104Z,0
2022-09-13T05:42:27.198Z,0
2022-09-13T05:43:27.109Z,0
2022-09-13T05:44:27.095Z,0
2022-09-13T05:45:27.109Z,0
2022-09-13T05:46:27.140Z,0
2022-09-13T05:47:27.104Z,0
2022-09-13T05:48:27.104Z,0
2022-09-13T05:49:27.098Z,0
2022-09-13T05:50:54.097Z,0
2022-09-13T05:51:27.105Z,0
2022-09-13T05:52:27.108Z,0
2022-09-13T05:53:27.114Z,0
2022-09-13T05:54:27.119Z,0
2022-09-13T05:55:27.118Z,0
2022-09-13T05:56:27.124Z,0
2022-09-13T05:57:27.117Z,0
2022-09-13T05:58:27.150Z,0
2022-09-13T05:59:27.124Z,0
2022-09-13T06:00:27.123Z,0
2022-09-13T06:01:27.171Z,0
2022-09-13T06:02:27.153Z,0
2022-09-13T06:03:27.125Z,0
2022-09-13T06:04:27.128Z,0
2022-09-13T06:05:31.243Z,0
2022-09-13T06:06:27.130Z,0
2022-09-13T06:07:27.127Z,0
2022-09-13T06:08:27.136Z,0
2022-09-13T06:09:27.132Z,0
2022-09-13T06:10:27.129Z,0
2022-09-13T06:11:27.137Z,0
2022-09-13T06:12:27.135Z,0
2022-09-13T06:13:27.140Z,0
2022-09-13T06:14:27.157Z,0
2022-09-13T06:15:27.143Z,0
2022-09-13T06:16:27.265Z,0
2022-09-13T06:17:27.144Z,0
2022-09-13T06:18:27.140Z,0
2022-09-13T06:19:27.141Z,0
2022-09-13T06:20:27.141Z,0
2022-09-13T06:21:29.229Z,0
2022-09-13T06:22:27.153Z,0
2022-09-13T06:23:27.143Z,0
2022-09-13T06:24:27.145Z,0
2022-09-13T06:25:27.153Z,0
2022-09-13T06:26:27.140Z,0
2022-09-13T06:27:27.146Z,0
2022-09-13T06:28:27.147Z,0
2022-09-13T06:29:27.152Z,0
2022-09-13T06:30:27.236Z,0
2022-09-13T06:31:27.391Z,0
2022-09-13T06:32:27.152Z,0
2022-09-13T06:33:27.153Z,0
2022-09-13T06:34:31.092Z,0
2022-09-13T06:35:27.160Z,0
2022-09-13T06:36:27.158Z,0
2022-09-13T06:37:27.154Z,0
2022-09-13T06:38:27.163Z,0
2022-09-13T06:39:27.164Z,0
2022-09-13T06:40:27.195Z,0
2022-09-13T06:41:27.202Z,0
2022-09-13T06:42:27.164Z,0
2022-09-13T06:43:27.170Z,0
2022-09-13T06:44:27.170Z,0
2022-09-13T06:45:27.168Z,0
2022-09-13T06:46:27.271Z,0
2022-09-13T06:47:27.165Z,0
2022-09-13T06:48:27.167Z,0
2022-09-13T06:49:27.171Z,0
2022-09-13T06:50:27.169Z,0
2022-09-13T06:51:27.173Z,0
2022-09-13T06:52:27.179Z,0
2022-09-13T06:53:27.174Z,0
2022-09-13T06:54:27.170Z,0
2022-09-13T06:55:27.171Z,0
2022-09-13T06:56:27.167Z,0
2022-09-13T06:57:27.172Z,0
2022-09-13T06:58:27.173Z,0
2022-09-13T06:59:27.174Z,0
2022-09-13T07:00:27.176Z,0
2022-09-13T07:01:27.303Z,0
2022-09-13T07:02:27.240Z,0
2022-09-13T07:03:27.186Z,0
2022-09-13T07:04:27.183Z,0
2022-09-13T07:05:27.199Z,0
2022-09-13T07:06:27.190Z,0
2022-09-13T07:07:27.193Z,0
2022-09-13T07:08:27.185Z,0
2022-09-13T07:09:27.198Z,0
2022-09-13T07:10:27.194Z,0
2022-09-13T07:11:27.195Z,0
2022-09-13T07:12:27.196Z,0
2022-09-13T07:13:27.202Z,0
2022-09-13T07:14:27.201Z,0
2022-09-13T07:15:27.202Z,0
2022-09-13T07:16:27.198Z,0
2022-09-13T07:17:30.826Z,0
2022-09-13T07:18:27.222Z,0
2022-09-13T07:19:27.211Z,0
2022-09-13T07:20:27.206Z,0
2022-09-13T07:21:27.201Z,0
2022-09-13T07:22:27.199Z,0
2022-09-13T07:23:27.218Z,0
2022-09-13T07:24:27.235Z,0
2022-09-13T07:25:27.208Z,0
2022-09-13T07:26:27.204Z,0
2022-09-13T07:27:27.215Z,0
2022-09-13T07:28:27.513Z,0
2022-09-13T07:29:27.211Z,0
2022-09-13T07:30:27.213Z,0
2022-09-13T07:31:27.256Z,0
2022-09-13T07:32:27.213Z,0
2022-09-13T07:33:27.222Z,0
2022-09-13T07:34:27.233Z,0
2022-09-13T07:35:27.229Z,0
2022-09-13T07:36:27.222Z,0
2022-09-13T07:37:27.219Z,0
2022-09-13T07:38:27.223Z,0
2022-09-13T07:39:27.227Z,0
2022-09-13T07:40:27.230Z,0
2022-09-13T07:41:27.233Z,0
2022-09-13T07:42:27.226Z,0
2022-09-13T07:43:27.220Z,0
2022-09-13T07:44:27.234Z,0
2022-09-13T07:45:27.232Z,0
2022-09-13T07:46:27.285Z,0
2022-09-13T07:47:27.234Z,0
2022-09-13T07:48:30.443Z,0
2022-09-13T07:49:27.233Z,0
2022-09-13T07:50:27.311Z,0
2022-09-13T07:51:27.234Z,0
2022-09-13T07:52:27.236Z,0
2022-09-13T07:53:27.244Z,0
2022-09-13T07:54:27.251Z,0
2022-09-13T07:55:27.249Z,0
2022-09-13T07:56:27.241Z,0
2022-09-13T07:57:27.240Z,0
2022-09-13T07:58:27.242Z,0
2022-09-13T07:59:30.147Z,0
2022-09-13T08:00:27.233Z,0
2022-09-13T08:01:27.292Z,0
2022-09-13T08:02:27.304Z,0
2022-09-13T08:03:27.239Z,0
2022-09-13T08:04:27.247Z,0
2022-09-13T08:05:27.245Z,0
2022-09-13T08:06:27.291Z,0
2022-09-13T08:07:27.250Z,0
2022-09-13T08:08:27.248Z,0
2022-09-13T08:09:27.245Z,0
2022-09-13T08:10:27.249Z,0
2022-09-13T08:11:27.251Z,0
2022-09-13T08:12:27.247Z,0
2022-09-13T08:13:27.244Z,0
2022-09-13T08:14:27.259Z,0
2022-09-13T08:15:27.286Z,0
2022-09-13T08:16:27.254Z,0
2022-09-13T08:17:49.517Z,0
2022-09-13T08:18:49.511Z,0
2022-09-13T08:19:49.542Z,0
2022-09-13T08:20:49.510Z,0
2022-09-13T08:21:49.540Z,0
2022-09-13T08:22:49.514Z,0
2022-09-13T08:23:49.583Z,0
2022-09-13T08:24:49.508Z,0
2022-09-13T08:25:49.514Z,0
2022-09-13T08:26:49.525Z,0
2022-09-13T08:27:49.521Z,0
2022-09-13T08:28:49.513Z,0
2022-09-13T08:29:49.516Z,0
2022-09-13T08:30:49.545Z,0
2022-09-13T08:31:49.524Z,0
2022-09-13T08:32:49.512Z,0
2022-09-13T08:33:49.805Z,0
2022-09-13T08:34:49.526Z,0
2022-09-13T08:35:49.521Z,0
2022-09-13T08:36:49.524Z,0
2022-09-13T08:37:49.540Z,0
2022-09-13T08:38:49.530Z,0
2022-09-13T08:39:49.546Z,0
2022-09-13T08:40:49.530Z,0
2022-09-13T08:41:49.517Z,0
2022-09-13T08:42:49.529Z,0
2022-09-13T08:43:49.696Z,0
2022-09-13T08:44:49.528Z,0
2022-09-13T08:45:49.557Z,0
2022-09-13T08:46:49.523Z,0
2022-09-13T08:47:49.534Z,0
2022-09-13T08:48:49.536Z,0
2022-09-13T08:49:49.538Z,0
2022-09-13T08:50:49.529Z,0
2022-09-13T08:51:49.530Z,0
2022-09-13T08:52:49.523Z,0
2022-09-13T08:53:49.637Z,0
2022-09-13T08:54:49.535Z,0
2022-09-13T08:55:49.537Z,0
2022-09-13T08:56:49.535Z,0
2022-09-13T08:57:49.538Z,0
2022-09-13T08:58:49.533Z,0
2022-09-13T08:59:49.535Z,0
2022-09-13T09:00:49.544Z,0
2022-09-13T09:01:49.593Z,0
2022-09-13T09:02:49.582Z,0
2022-09-13T09:03:49.684Z,0
2022-09-13T09:04:49.530Z,0
2022-09-13T09:05:49.533Z,0
2022-09-13T09:06:49.547Z,0
2022-09-13T09:07:49.533Z,0
2022-09-13T09:08:49.543Z,0
2022-09-13T09:09:49.555Z,0
2022-09-13T09:10:49.535Z,0
2022-09-13T09:11:49.547Z,0
2022-09-13T09:12:49.539Z,0
2022-09-13T09:13:49.669Z,2.5
2022-09-13T09:14:49.537Z,4.7
2022-09-13T09:15:49.572Z,0
2022-09-13T09:16:49.547Z,0
2022-09-13T09:17:49.545Z,0
2022-09-13T09:18:49.542Z,0
2022-09-13T09:19:49.536Z,0
2022-09-13T09:20:49.541Z,3
2022-09-13T09:21:49.538Z,0
2022-09-13T09:22:49.554Z,0
2022-09-13T09:23:49.661Z,0
2022-09-13T09:24:49.548Z,0
2022-09-13T09:25:49.659Z,0
2022-09-13T09:26:49.537Z,0
2022-09-13T09:27:49.541Z,0
2022-09-13T09:28:49.545Z,0
2022-09-13T09:29:49.552Z,0
2022-09-13T09:30:49.625Z,0
2022-09-13T09:31:49.549Z,0
2022-09-13T09:32:49.561Z,0
2022-09-13T09:33:49.678Z,0
2022-09-13T09:34:49.556Z,0
2022-09-13T09:35:49.559Z,0
2022-09-13T09:36:49.545Z,3.1
2022-09-13T09:37:49.552Z,5.800000000000001
2022-09-13T09:38:49.602Z,4.5
2022-09-13T09:39:49.613Z,3.7
2022-09-13T09:40:49.546Z,1.9000000000000001
2022-09-13T09:41:49.581Z,4.5
2022-09-13T09:42:49.557Z,4.1000000000000005
2022-09-13T09:43:49.652Z,0
2022-09-13T09:44:49.554Z,0
2022-09-13T09:45:49.614Z,0
2022-09-13T09:46:49.556Z,2.5
2022-09-13T09:47:49.561Z,4.7
2022-09-13T09:48:49.565Z,2.3000000000000003
2022-09-13T09:49:49.570Z,1.6
2022-09-13T09:50:49.561Z,0
2022-09-13T09:51:49.562Z,1.4000000000000001
2022-09-13T09:52:49.567Z,0
2022-09-13T09:53:49.662Z,3.5
2022-09-13T09:54:49.567Z,1.2000000000000002
2022-09-13T09:55:49.566Z,0
2022-09-13T09:56:49.579Z,0
2022-09-13T09:57:49.668Z,3.3000000000000003
2022-09-13T09:58:49.567Z,3.7
2022-09-13T09:59:49.569Z,4
2022-09-13T10:00:49.562Z,0
2022-09-13T10:01:49.592Z,0
2022-09-13T10:02:49.591Z,5.4
2022-09-13T10:03:49.712Z,3.6
2022-09-13T10:04:49.562Z,0
2022-09-13T10:05:49.561Z,0
2022-09-13T10:06:49.557Z,0
2022-09-13T10:07:49.569Z,2
2022-09-13T10:08:49.564Z,3.4000000000000004
2022-09-13T10:09:49.578Z,0
2022-09-13T10:10:49.572Z,0
2022-09-13T10:11:49.566Z,4.5
2022-09-13T10:12:49.563Z,2.2
2022-09-13T10:13:49.624Z,1.1
2022-09-13T10:14:49.568Z,0
2022-09-13T10:15:49.575Z,0
2022-09-13T10:16:49.586Z,0
2022-09-13T10:17:49.568Z,0
2022-09-13T10:18:49.576Z,0
2022-09-13T10:19:49.579Z,0
2022-09-13T10:20:49.567Z,0
2022-09-13T10:21:49.568Z,3.4000000000000004
2022-09-13T10:22:49.577Z,4
2022-09-13T10:23:49.579Z,2.6
2022-09-13T10:24:49.575Z,0
2022-09-13T10:25:49.576Z,0
2022-09-13T10:26:49.577Z,0
2022-09-13T10:27:49.575Z,2.2
2022-09-13T10:28:49.721Z,1.4000000000000001
2022-09-13T10:29:49.693Z,0
2022-09-13T10:30:49.603Z,0
2022-09-13T10:31:49.574Z,0
2022-09-13T10:32:49.570Z,0
2022-09-13T10:33:49.574Z,0
2022-09-13T10:34:49.576Z,0
2022-09-13T10:35:49.577Z,4.2
2022-09-13T10:36:52.402Z,3.6
2022-09-13T10:37:49.576Z,7.2
2022-09-13T10:38:49.705Z,2
2022-09-13T10:39:49.639Z,0
2022-09-13T10:40:49.578Z,0
2022-09-13T10:41:49.585Z,5
2022-09-13T10:42:49.577Z,1.3
2022-09-13T10:43:49.581Z,0
2022-09-13T10:44:49.574Z,0
2022-09-13T10:45:49.713Z,0
2022-09-13T10:46:49.571Z,0
2022-09-13T10:47:50.702Z,0
2022-09-13T10:48:49.731Z,3
2022-09-13T10:49:49.577Z,4.9
2022-09-13T10:50:49.578Z,3.7
2022-09-13T10:51:49.585Z,5.4
2022-09-13T10:52:49.584Z,2.9000000000000004
2022-09-13T10:53:49.592Z,1.1
2022-09-13T10:54:49.583Z,4.1000000000000005
2022-09-13T10:55:49.580Z,0.7000000000000001
2022-09-13T10:56:49.580Z,0
2022-09-13T10:57:49.589Z,1.6
2022-09-13T10:58:49.580Z,0
2022-09-13T10:59:49.588Z,3.6
2022-09-13T11:00:49.621Z,3.2
2022-09-13T11:01:49.621Z,0
2022-09-13T11:02:49.586Z,0
2022-09-13T11:03:49.674Z,3
2022-09-13T11:04:49.594Z,3.3000000000000003
2022-09-13T11:05:49.589Z,2.9000000000000004
2022-09-13T11:06:49.583Z,0
2022-09-13T11:07:49.579Z,0
2022-09-13T11:08:49.578Z,0
2022-09-13T11:09:49.592Z,0
2022-09-13T11:10:49.592Z,0
2022-09-13T11:11:49.586Z,0
2022-09-13T11:12:49.586Z,3.9000000000000004
2022-09-13T11:13:49.679Z,0
2022-09-13T11:14:49.599Z,0
2022-09-13T11:15:49.601Z,0
2022-09-13T11:16:49.613Z,0
2022-09-13T11:17:49.626Z,0
2022-09-13T11:18:49.595Z,0
2022-09-13T11:19:51.329Z,2.4000000000000004
2022-09-13T11:20:49.592Z,0.6000000000000001
2022-09-13T11:21:49.604Z,0
2022-09-13T11:22:49.585Z,3.3000000000000003
2022-09-13T11:23:49.679Z,1.5
2022-09-13T11:24:49.594Z,0
2022-09-13T11:25:49.600Z,0
2022-09-13T11:26:49.597Z,0
2022-09-13T11:27:49.605Z,3.4000000000000004
2022-09-13T11:28:49.592Z,4.9
2022-09-13T11:29:49.597Z,1.2000000000000002
2022-09-13T11:30:49.620Z,0
2022-09-13T11:31:49.648Z,0
2022-09-13T11:32:49.601Z,0
2022-09-13T11:33:49.833Z,0
2022-09-13T11:34:49.601Z,0
2022-09-13T11:35:49.611Z,3
2022-09-13T11:36:49.609Z,0.5
2022-09-13T11:37:49.607Z,3.7
2022-09-13T11:38:49.602Z,1.8
2022-09-13T11:39:49.638Z,2.5
2022-09-13T11:40:49.594Z,0
2022-09-13T11:41:49.604Z,0
2022-09-13T11:42:49.596Z,0
2022-09-13T11:43:49.700Z,0
2022-09-13T11:44:49.603Z,0
2022-09-13T11:45:49.630Z,0
2022-09-13T11:46:49.601Z,3.6
2022-09-13T11:47:49.595Z,0.8
2022-09-13T11:48:49.610Z,0
2022-09-13T11:49:49.658Z,0
2022-09-13T11:50:49.607Z,1.3
2022-09-13T11:51:49.600Z,0
2022-09-13T11:52:49.606Z,0
2022-09-13T11:53:49.660Z,1
2022-09-13T11:54:49.612Z,0
2022-09-13T11:55:49.613Z,0
2022-09-13T11:56:49.605Z,0
2022-09-13T11:57:49.604Z,3.6
2022-09-13T11:58:49.607Z,4.3
2022-09-13T11:59:49.606Z,0
2022-09-13T12:00:49.612Z,0
2022-09-13T12:01:49.820Z,0
2022-09-13T12:02:49.689Z,0
2022-09-13T12:03:49.650Z,0
2022-09-13T12:05:04.886Z,0
2022-09-13T12:05:49.638Z,5.800000000000001
2022-09-13T12:06:49.606Z,4.1000000000000005
2022-09-13T12:07:49.607Z,0
2022-09-13T12:08:49.610Z,0
2022-09-13T12:09:49.606Z,3.4000000000000004
2022-09-13T12:10:49.620Z,7.2
2022-09-13T12:11:49.602Z,1.3
2022-09-13T12:12:49.615Z,3.2
2022-09-13T12:13:49.740Z,3
2022-09-13T12:14:49.607Z,4.7
2022-09-13T12:15:49.609Z,5.5
2022-09-13T12:16:49.621Z,5.1000000000000005
2022-09-13T12:17:49.614Z,3.6
2022-09-13T12:18:49.612Z,3.1
2022-09-13T12:19:49.620Z,0
2022-09-13T12:20:49.613Z,0
2022-09-13T12:21:49.639Z,0
2022-09-13T12:22:49.612Z,0
2022-09-13T12:23:49.713Z,0
2022-09-13T12:24:49.620Z,3.3000000000000003
2022-09-13T12:25:49.619Z,6.1000000000000005
2022-09-13T12:26:49.614Z,8.5
2022-09-13T12:27:49.618Z,2.8000000000000003
2022-09-13T12:28:49.616Z,3.2
2022-09-13T12:29:49.613Z,0
2022-09-13T12:30:49.621Z,7.5
2022-09-13T12:31:49.676Z,2.8000000000000003
2022-09-13T12:32:49.611Z,4.7
2022-09-13T12:33:49.737Z,7
2022-09-13T12:34:49.617Z,3.9000000000000004
2022-09-13T12:35:49.618Z,6.2
2022-09-13T12:36:49.614Z,6
2022-09-13T12:37:49.650Z,0
2022-09-13T12:38:49.632Z,0
2022-09-13T12:39:49.647Z,6.2
2022-09-13T12:40:49.624Z,3.5
2022-09-13T12:41:49.622Z,3.2
2022-09-13T12:42:49.619Z,7.5
2022-09-13T12:43:49.763Z,6.9
2022-09-13T12:44:49.619Z,1
2022-09-13T12:45:49.639Z,0.9
2022-09-13T12:46:49.622Z,0
2022-09-13T12:47:49.624Z,5.4
2022-09-13T12:48:49.613Z,3.7
2022-09-13T12:49:49.621Z,7.4
2022-09-13T12:50:49.624Z,12.9
2022-09-13T12:51:49.613Z,6.4
2022-09-13T12:52:49.631Z,4.5
2022-09-13T12:53:49.701Z,4.1000000000000005
2022-09-13T12:54:49.617Z,2.2
2022-09-13T12:55:49.616Z,5.6000000000000005
2022-09-13T12:56:51.655Z,3
2022-09-13T12:57:49.621Z,6.5
2022-09-13T12:58:49.621Z,4.5
2022-09-13T12:59:49.628Z,8.200000000000001
2022-09-13T13:00:49.657Z,0
2022-09-13T13:01:49.770Z,3
2022-09-13T13:02:53.817Z,0
2022-09-13T13:03:49.731Z,0
2022-09-13T13:04:49.626Z,6.300000000000001
2022-09-13T13:05:49.634Z,7.7
2022-09-13T13:06:49.637Z,0
2022-09-13T13:07:49.629Z,3.6
2022-09-13T13:08:49.628Z,0
2022-09-13T13:09:49.656Z,2.3000000000000003
2022-09-13T13:10:49.633Z,0
2022-09-13T13:11:49.633Z,0
2022-09-13T13:12:49.630Z,3.1
2022-09-13T13:13:49.676Z,6
2022-09-13T13:14:49.637Z,1.8
2022-09-13T13:15:50.341Z,0.9
2022-09-13T13:16:49.633Z,10.3
2022-09-13T13:17:49.636Z,5.9
2022-09-13T13:18:49.638Z,5.2
2022-09-13T13:19:49.638Z,7.1000000000000005
2022-09-13T13:20:49.631Z,9.3
2022-09-13T13:21:49.626Z,8.5
2022-09-13T13:22:49.633Z,6.300000000000001
2022-09-13T13:23:49.646Z,5.7
2022-09-13T13:24:49.630Z,6.9
2022-09-13T13:25:49.672Z,6.1000000000000005
2022-09-13T13:26:49.632Z,3
2022-09-13T13:27:49.639Z,10
2022-09-13T13:28:49.633Z,9.8
2022-09-13T13:29:49.625Z,6.2
2022-09-13T13:30:49.637Z,4.5
2022-09-13T13:31:49.647Z,3.4000000000000004
2022-09-13T13:32:49.633Z,1.1
2022-09-13T13:33:49.640Z,4.4
2022-09-13T13:34:49.633Z,0
2022-09-13T13:35:49.634Z,0
2022-09-13T13:36:49.634Z,0
2022-09-13T13:37:49.633Z,0
2022-09-13T13:38:49.632Z,0
2022-09-13T13:39:49.668Z,4.3
2022-09-13T13:40:49.635Z,3.9000000000000004
2022-09-13T13:41:49.665Z,0
2022-09-13T13:42:49.632Z,0
2022-09-13T13:43:49.634Z,1.5
2022-09-13T13:44:49.630Z,4.4
2022-09-13T13:45:49.651Z,5.6000000000000005
2022-09-13T13:46:49.634Z,6.300000000000001
2022-09-13T13:47:49.640Z,6.9
2022-09-13T13:48:49.671Z,6.5
2022-09-13T13:49:49.633Z,7.4
2022-09-13T13:50:49.645Z,5
2022-09-13T13:51:49.634Z,4.6000000000000005
2022-09-13T13:52:49.637Z,4.800000000000001
2022-09-13T13:53:49.632Z,0.5
2022-09-13T13:54:49.647Z,2.1
2022-09-13T13:55:49.637Z,5.7
2022-09-13T13:56:49.637Z,6.300000000000001
2022-09-13T13:57:49.995Z,4.800000000000001
2022-09-13T13:58:49.641Z,0
2022-09-13T13:59:49.634Z,1.6
2022-09-13T14:00:49.675Z,0
2022-09-13T14:01:49.643Z,0
2022-09-13T14:02:49.641Z,0
2022-09-13T14:03:49.634Z,0
2022-09-13T14:04:49.681Z,8.700000000000001
2022-09-13T14:05:49.640Z,9.700000000000001
2022-09-13T14:06:49.959Z,7.6000000000000005
2022-09-13T14:07:49.636Z,8.9
2022-09-13T14:08:49.743Z,8.200000000000001
2022-09-13T14:09:49.638Z,6